• Join FlightAware (Why Join?)
  • Login
  • US Flag 
02:27AM EDT


 

Airport Tracker/Info


-or-


 

Live Flight TrackerFlight Track Log ✈ N207HP ✈ 14-Mar-2014 ✈ 33J - 41A

Flight Track Log - Related Links

Times and Time Zones

All times are in EDT time to prevent confusion due to time zone crossing. See the N207HP flight status page for this flight to view local times or setup timezone preferences in your user account.

Time Position Orientation Groundspeed Altitude Reporting Facility
EDT Latitude Longitude Course Direction KTS MPH feet Rate Location/Type
02:49PM 31.1928 -85.8408 350° North 93 107 4,200  Level Jacksonville Center
02:50PM 31.2197 -85.8464 350° North 93 107 5,000 600 Climbing Jacksonville Center
02:51PM 31.2447 -85.8547 344° North 94 108 5,500 180 Climbing Jacksonville Center
02:52PM 31.2819 -85.8656 346° North 122 140 5,400 -60 Descending Jacksonville Center
02:53PM 31.3172 -85.8714 352° North 122 140 5,400 -120 Level Jacksonville Center
02:54PM 31.3483 -85.8797 347° North 116 133 5,200 -120 Descending Jacksonville Center
02:55PM 31.3797 -85.8856 351° North 120 138 5,200 60 Level Jacksonville Center
02:56PM 31.4089 -85.8892 354° North 110 127 5,400 120 Climbing Jacksonville Center
02:57PM 31.4442 -85.8878 North 111 128 5,500  Climbing Jacksonville Center
03:00PM 31.5111 -85.8875 North 122 140 5,500 -60 Level Jacksonville Center
03:01PM 31.5467 -85.8886 358° North 122 140 5,400 -120 Descending Jacksonville Center
03:01PM 31.5778 -85.8872 North 123 142 5,300 -60 Descending Jacksonville Center
03:02PM 31.6133 -85.8858 North 122 140 5,300  Level Jacksonville Center
03:03PM 31.6447 -85.8869 358° North 116 133 5,400  Climbing Jacksonville Center
03:04PM 31.6761 -85.8856 North 116 133 5,400  Level Jacksonville Center
03:05PM 31.7075 -85.8839 North 118 136 5,400  Level Jacksonville Center
03:06PM 31.7408 -85.8850 358° North 117 135 5,400  Level Jacksonville Center
03:07PM 31.7764 -85.8839 North 118 136 5,400  Level Jacksonville Center
03:08PM 31.8075 -85.8847 359° North 119 137 5,400  Level Jacksonville Center
03:09PM 31.8411 -85.8811 North 117 135 5,400 60 Level Jacksonville Center
03:10PM 31.8744 -85.8797 North 120 138 5,600 60 Climbing Jacksonville Center
03:11PM 31.9100 -85.8831 355° North 123 142 5,600 -60 Level Jacksonville Center
03:14PM 31.9728 -85.8897 11° North 137 158 5,500 -180 Descending Atlanta Center
03:17PM 32.0981 -85.8900 North 131 151 4,600 -300 Descending Atlanta Center
03:21PM 32.2275 -85.8803 North 135 155 3,500 -360 Descending Atlanta Center
03:23PM 32.2922 -85.8667 North  Level FlightAware Approximate
03:23PM 32.2786 -85.8667 North  Level FlightAware Approximate
03:26PM 32.2821 -85.8667 North  Level FlightAware Approximate
03:30PM 32.5000 -85.8667 North  Level FlightAware Approximate
03:31PM 32.5149 -85.8762 North  Level Estimated
03:32PM 32.5149 -85.8762 North  Level Estimated
03:33PM 32.5149 -85.8762 North  Level Estimated
03:34PM 32.5149 -85.8762 North  Level Estimated
03:35PM 32.5149 -85.8762 North  Level Estimated
03:36PM 32.5149 -85.8762 North  Level Estimated